sensor_id;sensor_type;location;lat;lon;timestamp;P1;durP1;ratioP1;P2;durP2;ratioP2
3155;SDS011;1588;50.892;7.082;2022-08-23T00:04:18;9.20;;;4.33;;
3155;SDS011;1588;50.892;7.082;2022-08-23T00:09:24;7.07;;;5.00;;
3155;SDS011;1588;50.892;7.082;2022-08-23T00:14:29;6.90;;;4.83;;
3155;SDS011;1588;50.892;7.082;2022-08-23T00:19:33;11.20;;;5.30;;
3155;SDS011;1588;50.892;7.082;2022-08-23T00:24:37;5.77;;;4.70;;
3155;SDS011;1588;50.892;7.082;2022-08-23T00:29:41;11.20;;;5.47;;
3155;SDS011;1588;50.892;7.082;2022-08-23T00:34:46;10.47;;;5.30;;
3155;SDS011;1588;50.892;7.082;2022-08-23T00:39:51;8.70;;;4.97;;
3155;SDS011;1588;50.892;7.082;2022-08-23T00:44:54;6.37;;;4.67;;
3155;SDS011;1588;50.892;7.082;2022-08-23T00:50:17;7.70;;;5.03;;
3155;SDS011;1588;50.892;7.082;2022-08-23T00:55:26;9.20;;;5.47;;
3155;SDS011;1588;50.892;7.082;2022-08-23T01:00:29;8.70;;;4.90;;
3155;SDS011;1588;50.892;7.082;2022-08-23T01:05:35;6.63;;;5.10;;
3155;SDS011;1588;50.892;7.082;2022-08-23T01:10:46;7.97;;;5.60;;
3155;SDS011;1588;50.892;7.082;2022-08-23T01:15:55;6.97;;;5.03;;
3155;SDS011;1588;50.892;7.082;2022-08-23T01:21:09;8.63;;;5.53;;
3155;SDS011;1588;50.892;7.082;2022-08-23T01:26:17;8.03;;;5.50;;
3155;SDS011;1588;50.892;7.082;2022-08-23T01:31:22;15.70;;;5.67;;
3155;SDS011;1588;50.892;7.082;2022-08-23T01:36:25;5.63;;;4.63;;
3155;SDS011;1588;50.892;7.082;2022-08-23T01:41:29;12.47;;;5.77;;
3155;SDS011;1588;50.892;7.082;2022-08-23T01:46:32;9.80;;;6.13;;
3155;SDS011;1588;50.892;7.082;2022-08-23T01:51:34;9.80;;;5.83;;
3155;SDS011;1588;50.892;7.082;2022-08-23T01:56:38;8.70;;;5.73;;
3155;SDS011;1588;50.892;7.082;2022-08-23T02:01:42;11.47;;;6.27;;
3155;SDS011;1588;50.892;7.082;2022-08-23T02:06:44;9.30;;;5.90;;
3155;SDS011;1588;50.892;7.082;2022-08-23T02:11:48;7.50;;;6.10;;
3155;SDS011;1588;50.892;7.082;2022-08-23T02:16:52;6.80;;;5.37;;
3155;SDS011;1588;50.892;7.082;2022-08-23T02:21:56;8.10;;;6.37;;
3155;SDS011;1588;50.892;7.082;2022-08-23T02:27:00;9.30;;;5.67;;
3155;SDS011;1588;50.892;7.082;2022-08-23T02:32:04;6.90;;;5.73;;
3155;SDS011;1588;50.892;7.082;2022-08-23T02:37:07;11.50;;;6.20;;
3155;SDS011;1588;50.892;7.082;2022-08-23T02:42:17;9.33;;;6.17;;
3155;SDS011;1588;50.892;7.082;2022-08-23T02:47:19;10.33;;;6.90;;
3155;SDS011;1588;50.892;7.082;2022-08-23T02:52:23;12.97;;;6.83;;
3155;SDS011;1588;50.892;7.082;2022-08-23T02:57:26;9.43;;;6.50;;
3155;SDS011;1588;50.892;7.082;2022-08-23T03:02:29;12.33;;;5.90;;
3155;SDS011;1588;50.892;7.082;2022-08-23T03:07:31;10.40;;;6.30;;
3155;SDS011;1588;50.892;7.082;2022-08-23T03:12:35;14.60;;;7.40;;
3155;SDS011;1588;50.892;7.082;2022-08-23T03:17:37;8.63;;;6.40;;
3155;SDS011;1588;50.892;7.082;2022-08-23T03:22:42;14.60;;;5.97;;
3155;SDS011;1588;50.892;7.082;2022-08-23T03:27:47;9.17;;;6.63;;
3155;SDS011;1588;50.892;7.082;2022-08-23T03:32:50;12.43;;;7.20;;
3155;SDS011;1588;50.892;7.082;2022-08-23T03:37:53;11.57;;;6.03;;
3155;SDS011;1588;50.892;7.082;2022-08-23T03:42:57;6.87;;;5.40;;
3155;SDS011;1588;50.892;7.082;2022-08-23T03:48:00;11.63;;;7.13;;
3155;SDS011;1588;50.892;7.082;2022-08-23T03:53:05;11.03;;;6.63;;
3155;SDS011;1588;50.892;7.082;2022-08-23T03:58:09;10.60;;;6.27;;
3155;SDS011;1588;50.892;7.082;2022-08-23T04:03:12;13.00;;;6.80;;
3155;SDS011;1588;50.892;7.082;2022-08-23T04:08:14;12.80;;;6.27;;
3155;SDS011;1588;50.892;7.082;2022-08-23T04:13:18;11.43;;;6.13;;
3155;SDS011;1588;50.892;7.082;2022-08-23T04:18:20;7.70;;;6.10;;
3155;SDS011;1588;50.892;7.082;2022-08-23T04:23:22;13.40;;;6.67;;
3155;SDS011;1588;50.892;7.082;2022-08-23T04:28:28;12.47;;;6.67;;
3155;SDS011;1588;50.892;7.082;2022-08-23T04:33:31;7.87;;;5.90;;
3155;SDS011;1588;50.892;7.082;2022-08-23T04:38:34;11.43;;;7.10;;
3155;SDS011;1588;50.892;7.082;2022-08-23T04:43:40;11.67;;;6.50;;
3155;SDS011;1588;50.892;7.082;2022-08-23T04:48:44;11.97;;;6.80;;
3155;SDS011;1588;50.892;7.082;2022-08-23T04:53:47;9.20;;;6.30;;
3155;SDS011;1588;50.892;7.082;2022-08-23T04:58:51;15.30;;;7.20;;
3155;SDS011;1588;50.892;7.082;2022-08-23T05:03:53;13.13;;;6.50;;
3155;SDS011;1588;50.892;7.082;2022-08-23T05:08:56;17.90;;;7.13;;
3155;SDS011;1588;50.892;7.082;2022-08-23T05:14:01;10.60;;;6.67;;
3155;SDS011;1588;50.892;7.082;2022-08-23T05:19:03;12.10;;;7.47;;
3155;SDS011;1588;50.892;7.082;2022-08-23T05:24:06;12.57;;;7.00;;
3155;SDS011;1588;50.892;7.082;2022-08-23T05:29:10;12.53;;;7.10;;
3155;SDS011;1588;50.892;7.082;2022-08-23T05:34:12;10.50;;;6.87;;
3155;SDS011;1588;50.892;7.082;2022-08-23T05:39:14;10.70;;;6.50;;
3155;SDS011;1588;50.892;7.082;2022-08-23T05:44:18;12.50;;;6.73;;
3155;SDS011;1588;50.892;7.082;2022-08-23T05:49:21;11.57;;;7.47;;
3155;SDS011;1588;50.892;7.082;2022-08-23T05:54:23;13.30;;;6.90;;
3155;SDS011;1588;50.892;7.082;2022-08-23T05:59:27;11.43;;;6.50;;
3155;SDS011;1588;50.892;7.082;2022-08-23T06:04:29;10.33;;;6.37;;
3155;SDS011;1588;50.892;7.082;2022-08-23T06:09:32;8.30;;;6.20;;
3155;SDS011;1588;50.892;7.082;2022-08-23T06:14:36;8.30;;;4.73;;
3155;SDS011;1588;50.892;7.082;2022-08-23T06:19:39;8.90;;;5.20;;
3155;SDS011;1588;50.892;7.082;2022-08-23T06:24:41;10.07;;;5.10;;
3155;SDS011;1588;50.892;7.082;2022-08-23T06:29:44;4.97;;;4.50;;
3155;SDS011;1588;50.892;7.082;2022-08-23T06:34:47;4.67;;;3.97;;
3155;SDS011;1588;50.892;7.082;2022-08-23T06:39:49;6.60;;;4.20;;
3155;SDS011;1588;50.892;7.082;2022-08-23T06:44:53;5.33;;;3.73;;
3155;SDS011;1588;50.892;7.082;2022-08-23T06:49:56;16.10;;;4.10;;
3155;SDS011;1588;50.892;7.082;2022-08-23T06:54:58;7.63;;;3.63;;
3155;SDS011;1588;50.892;7.082;2022-08-23T07:00:03;9.43;;;3.30;;
3155;SDS011;1588;50.892;7.082;2022-08-23T07:05:07;4.40;;;3.23;;
3155;SDS011;1588;50.892;7.082;2022-08-23T07:10:10;6.90;;;3.70;;
3155;SDS011;1588;50.892;7.082;2022-08-23T07:15:14;4.73;;;3.10;;
3155;SDS011;1588;50.892;7.082;2022-08-23T07:20:16;4.20;;;3.37;;
3155;SDS011;1588;50.892;7.082;2022-08-23T07:25:18;9.67;;;3.57;;
3155;SDS011;1588;50.892;7.082;2022-08-23T07:30:22;4.80;;;2.90;;
3155;SDS011;1588;50.892;7.082;2022-08-23T07:35:25;7.87;;;3.30;;
3155;SDS011;1588;50.892;7.082;2022-08-23T07:40:27;9.13;;;3.70;;
3155;SDS011;1588;50.892;7.082;2022-08-23T07:45:32;9.43;;;3.47;;
3155;SDS011;1588;50.892;7.082;2022-08-23T07:50:34;4.73;;;3.40;;
3155;SDS011;1588;50.892;7.082;2022-08-23T07:55:37;6.70;;;4.10;;
3155;SDS011;1588;50.892;7.082;2022-08-23T08:00:42;6.60;;;3.50;;
3155;SDS011;1588;50.892;7.082;2022-08-23T08:05:45;10.10;;;3.87;;
3155;SDS011;1588;50.892;7.082;2022-08-23T08:10:52;6.63;;;3.40;;
3155;SDS011;1588;50.892;7.082;2022-08-23T08:15:56;9.37;;;4.20;;
3155;SDS011;1588;50.892;7.082;2022-08-23T08:20:58;8.50;;;3.70;;
3155;SDS011;1588;50.892;7.082;2022-08-23T08:26:02;4.50;;;3.77;;
3155;SDS011;1588;50.892;7.082;2022-08-23T08:31:07;15.17;;;3.90;;
3155;SDS011;1588;50.892;7.082;2022-08-23T08:41:34;10.30;;;4.00;;
3155;SDS011;1588;50.892;7.082;2022-08-23T08:46:48;19.93;;;4.13;;
3155;SDS011;1588;50.892;7.082;2022-08-23T08:51:54;6.17;;;4.03;;
3155;SDS011;1588;50.892;7.082;2022-08-23T08:57:00;10.10;;;3.30;;
3155;SDS011;1588;50.892;7.082;2022-08-23T09:02:05;9.00;;;3.90;;
3155;SDS011;1588;50.892;7.082;2022-08-23T09:07:12;7.40;;;3.93;;
3155;SDS011;1588;50.892;7.082;2022-08-23T09:12:23;6.87;;;3.80;;
3155;SDS011;1588;50.892;7.082;2022-08-23T09:17:39;6.87;;;3.87;;
3155;SDS011;1588;50.892;7.082;2022-08-23T09:23:05;7.73;;;4.40;;
3155;SDS011;1588;50.892;7.082;2022-08-23T09:28:11;13.03;;;3.70;;
3155;SDS011;1588;50.892;7.082;2022-08-23T09:33:17;13.67;;;3.53;;
3155;SDS011;1588;50.892;7.082;2022-08-23T09:38:20;10.30;;;3.40;;
3155;SDS011;1588;50.892;7.082;2022-08-23T09:43:25;9.07;;;3.70;;
3155;SDS011;1588;50.892;7.082;2022-08-23T09:48:33;8.17;;;3.57;;
3155;SDS011;1588;50.892;7.082;2022-08-23T09:53:37;10.63;;;4.00;;
3155;SDS011;1588;50.892;7.082;2022-08-23T09:58:42;8.17;;;4.23;;
3155;SDS011;1588;50.892;7.082;2022-08-23T10:09:24;9.03;;;3.87;;
3155;SDS011;1588;50.892;7.082;2022-08-23T10:14:28;5.87;;;3.60;;
3155;SDS011;1588;50.892;7.082;2022-08-23T10:19:33;9.70;;;3.80;;
3155;SDS011;1588;50.892;7.082;2022-08-23T10:24:44;11.00;;;3.50;;
3155;SDS011;1588;50.892;7.082;2022-08-23T10:29:52;9.20;;;3.90;;
3155;SDS011;1588;50.892;7.082;2022-08-23T10:35:09;6.50;;;3.80;;
3155;SDS011;1588;50.892;7.082;2022-08-23T10:40:39;7.63;;;3.90;;
3155;SDS011;1588;50.892;7.082;2022-08-23T10:45:47;4.60;;;3.30;;
3155;SDS011;1588;50.892;7.082;2022-08-23T10:50:51;8.43;;;4.10;;
3155;SDS011;1588;50.892;7.082;2022-08-23T10:55:57;9.43;;;3.80;;
3155;SDS011;1588;50.892;7.082;2022-08-23T11:01:07;5.33;;;3.70;;
3155;SDS011;1588;50.892;7.082;2022-08-23T11:12:02;4.33;;;3.87;;
3155;SDS011;1588;50.892;7.082;2022-08-23T11:17:22;8.13;;;4.00;;
3155;SDS011;1588;50.892;7.082;2022-08-23T11:22:28;3.63;;;3.13;;
3155;SDS011;1588;50.892;7.082;2022-08-23T11:27:37;6.73;;;3.47;;
3155;SDS011;1588;50.892;7.082;2022-08-23T11:32:41;7.03;;;3.60;;
3155;SDS011;1588;50.892;7.082;2022-08-23T11:37:48;23.90;;;3.50;;
3155;SDS011;1588;50.892;7.082;2022-08-23T11:42:58;9.93;;;3.53;;
3155;SDS011;1588;50.892;7.082;2022-08-23T11:48:10;3.47;;;3.10;;
3155;SDS011;1588;50.892;7.082;2022-08-23T11:53:21;2.93;;;2.70;;
3155;SDS011;1588;50.892;7.082;2022-08-23T11:58:43;11.20;;;3.70;;
3155;SDS011;1588;50.892;7.082;2022-08-23T12:04:04;4.20;;;3.13;;
3155;SDS011;1588;50.892;7.082;2022-08-23T12:09:12;4.20;;;2.90;;
3155;SDS011;1588;50.892;7.082;2022-08-23T12:14:49;6.53;;;3.90;;
3155;SDS011;1588;50.892;7.082;2022-08-23T12:19:56;4.63;;;2.97;;
3155;SDS011;1588;50.892;7.082;2022-08-23T12:25:27;3.37;;;2.80;;
3155;SDS011;1588;50.892;7.082;2022-08-23T12:30:36;3.30;;;2.70;;
3155;SDS011;1588;50.892;7.082;2022-08-23T12:35:53;5.97;;;3.60;;
3155;SDS011;1588;50.892;7.082;2022-08-23T12:41:18;6.77;;;2.80;;
3155;SDS011;1588;50.892;7.082;2022-08-23T12:46:35;6.83;;;3.13;;
3155;SDS011;1588;50.892;7.082;2022-08-23T12:51:39;4.20;;;3.30;;
3155;SDS011;1588;50.892;7.082;2022-08-23T12:56:49;4.27;;;3.27;;
3155;SDS011;1588;50.892;7.082;2022-08-23T13:01:55;21.60;;;3.03;;
3155;SDS011;1588;50.892;7.082;2022-08-23T13:07:00;4.87;;;3.50;;
3155;SDS011;1588;50.892;7.082;2022-08-23T13:12:06;6.63;;;3.20;;
3155;SDS011;1588;50.892;7.082;2022-08-23T13:17:19;9.00;;;3.33;;
3155;SDS011;1588;50.892;7.082;2022-08-23T13:28:20;8.70;;;3.40;;
3155;SDS011;1588;50.892;7.082;2022-08-23T13:33:26;3.53;;;2.80;;
3155;SDS011;1588;50.892;7.082;2022-08-23T13:38:32;5.30;;;3.10;;
3155;SDS011;1588;50.892;7.082;2022-08-23T13:43:45;5.03;;;3.20;;
3155;SDS011;1588;50.892;7.082;2022-08-23T13:48:53;9.47;;;3.17;;
3155;SDS011;1588;50.892;7.082;2022-08-23T13:53:59;4.83;;;3.07;;
3155;SDS011;1588;50.892;7.082;2022-08-23T13:59:04;13.13;;;2.60;;
3155;SDS011;1588;50.892;7.082;2022-08-23T14:04:19;26.27;;;3.50;;
3155;SDS011;1588;50.892;7.082;2022-08-23T14:09:21;3.57;;;2.83;;
3155;SDS011;1588;50.892;7.082;2022-08-23T14:14:23;6.00;;;2.80;;
3155;SDS011;1588;50.892;7.082;2022-08-23T14:19:27;9.27;;;3.20;;
3155;SDS011;1588;50.892;7.082;2022-08-23T14:24:31;3.97;;;3.30;;
3155;SDS011;1588;50.892;7.082;2022-08-23T14:29:33;3.40;;;2.87;;
3155;SDS011;1588;50.892;7.082;2022-08-23T14:34:37;7.73;;;3.03;;
3155;SDS011;1588;50.892;7.082;2022-08-23T14:39:39;7.77;;;3.20;;
3155;SDS011;1588;50.892;7.082;2022-08-23T14:44:41;13.93;;;3.00;;
3155;SDS011;1588;50.892;7.082;2022-08-23T14:49:45;10.93;;;2.70;;
3155;SDS011;1588;50.892;7.082;2022-08-23T14:54:47;6.40;;;3.20;;
3155;SDS011;1588;50.892;7.082;2022-08-23T14:59:50;5.40;;;3.07;;
3155;SDS011;1588;50.892;7.082;2022-08-23T15:04:53;3.30;;;3.00;;
3155;SDS011;1588;50.892;7.082;2022-08-23T15:09:56;3.10;;;2.73;;
3155;SDS011;1588;50.892;7.082;2022-08-23T15:14:58;4.93;;;3.00;;
3155;SDS011;1588;50.892;7.082;2022-08-23T15:20:04;4.17;;;2.83;;
3155;SDS011;1588;50.892;7.082;2022-08-23T15:25:07;3.20;;;2.90;;
3155;SDS011;1588;50.892;7.082;2022-08-23T15:30:14;4.87;;;3.67;;
3155;SDS011;1588;50.892;7.082;2022-08-23T15:35:18;22.43;;;3.03;;
3155;SDS011;1588;50.892;7.082;2022-08-23T15:40:21;5.40;;;2.80;;
3155;SDS011;1588;50.892;7.082;2022-08-23T15:45:24;7.83;;;2.77;;
3155;SDS011;1588;50.892;7.082;2022-08-23T15:50:33;4.20;;;2.90;;
3155;SDS011;1588;50.892;7.082;2022-08-23T15:55:36;17.63;;;2.93;;
3155;SDS011;1588;50.892;7.082;2022-08-23T16:00:41;4.40;;;3.20;;
3155;SDS011;1588;50.892;7.082;2022-08-23T16:05:52;15.10;;;2.90;;
3155;SDS011;1588;50.892;7.082;2022-08-23T16:10:59;15.10;;;3.43;;
3155;SDS011;1588;50.892;7.082;2022-08-23T16:16:04;5.07;;;3.23;;
3155;SDS011;1588;50.892;7.082;2022-08-23T16:21:11;5.10;;;2.70;;
3155;SDS011;1588;50.892;7.082;2022-08-23T16:26:18;3.97;;;3.00;;
3155;SDS011;1588;50.892;7.082;2022-08-23T16:31:24;6.63;;;2.73;;
3155;SDS011;1588;50.892;7.082;2022-08-23T16:36:33;8.27;;;2.67;;
3155;SDS011;1588;50.892;7.082;2022-08-23T16:41:36;3.07;;;2.10;;
3155;SDS011;1588;50.892;7.082;2022-08-23T16:46:38;10.13;;;2.93;;
3155;SDS011;1588;50.892;7.082;2022-08-23T16:51:54;5.60;;;2.70;;
3155;SDS011;1588;50.892;7.082;2022-08-23T16:56:57;11.33;;;2.90;;
3155;SDS011;1588;50.892;7.082;2022-08-23T17:01:59;13.70;;;2.40;;
3155;SDS011;1588;50.892;7.082;2022-08-23T17:07:04;6.57;;;2.83;;
3155;SDS011;1588;50.892;7.082;2022-08-23T17:12:09;8.00;;;2.57;;
3155;SDS011;1588;50.892;7.082;2022-08-23T17:17:18;5.70;;;2.60;;
3155;SDS011;1588;50.892;7.082;2022-08-23T17:22:25;4.50;;;2.33;;
3155;SDS011;1588;50.892;7.082;2022-08-23T17:27:30;6.83;;;2.50;;
3155;SDS011;1588;50.892;7.082;2022-08-23T17:32:32;5.70;;;2.20;;
3155;SDS011;1588;50.892;7.082;2022-08-23T17:37:36;10.27;;;2.93;;
3155;SDS011;1588;50.892;7.082;2022-08-23T17:42:39;8.90;;;2.97;;
3155;SDS011;1588;50.892;7.082;2022-08-23T17:47:42;11.33;;;3.40;;
3155;SDS011;1588;50.892;7.082;2022-08-23T17:52:45;7.60;;;2.30;;
3155;SDS011;1588;50.892;7.082;2022-08-23T17:57:50;5.43;;;2.53;;
3155;SDS011;1588;50.892;7.082;2022-08-23T18:02:52;7.33;;;1.93;;
3155;SDS011;1588;50.892;7.082;2022-08-23T18:07:56;10.70;;;2.40;;
3155;SDS011;1588;50.892;7.082;2022-08-23T18:12:58;4.93;;;2.30;;
3155;SDS011;1588;50.892;7.082;2022-08-23T18:18:00;4.20;;;2.33;;
3155;SDS011;1588;50.892;7.082;2022-08-23T18:23:04;5.27;;;2.80;;
3155;SDS011;1588;50.892;7.082;2022-08-23T18:28:07;5.10;;;2.60;;
3155;SDS011;1588;50.892;7.082;2022-08-23T18:33:10;28.67;;;17.60;;
3155;SDS011;1588;50.892;7.082;2022-08-23T18:38:18;16.63;;;8.80;;
3155;SDS011;1588;50.892;7.082;2022-08-23T18:43:21;10.37;;;3.07;;
3155;SDS011;1588;50.892;7.082;2022-08-23T18:48:25;11.07;;;2.90;;
3155;SDS011;1588;50.892;7.082;2022-08-23T18:53:29;4.80;;;2.60;;
3155;SDS011;1588;50.892;7.082;2022-08-23T18:58:32;2.60;;;2.40;;
3155;SDS011;1588;50.892;7.082;2022-08-23T19:03:34;4.70;;;2.30;;
3155;SDS011;1588;50.892;7.082;2022-08-23T19:08:37;17.93;;;3.10;;
3155;SDS011;1588;50.892;7.082;2022-08-23T19:13:40;3.27;;;2.57;;
3155;SDS011;1588;50.892;7.082;2022-08-23T19:18:42;15.33;;;3.10;;
3155;SDS011;1588;50.892;7.082;2022-08-23T19:23:48;7.00;;;3.20;;
3155;SDS011;1588;50.892;7.082;2022-08-23T19:28:52;18.70;;;3.43;;
3155;SDS011;1588;50.892;7.082;2022-08-23T19:33:54;2.63;;;2.43;;
3155;SDS011;1588;50.892;7.082;2022-08-23T19:38:58;7.70;;;3.13;;
3155;SDS011;1588;50.892;7.082;2022-08-23T19:44:00;12.10;;;2.83;;
3155;SDS011;1588;50.892;7.082;2022-08-23T19:49:02;17.63;;;3.07;;
3155;SDS011;1588;50.892;7.082;2022-08-23T19:54:11;5.70;;;2.60;;
3155;SDS011;1588;50.892;7.082;2022-08-23T19:59:22;3.70;;;2.50;;
3155;SDS011;1588;50.892;7.082;2022-08-23T20:04:27;12.13;;;3.70;;
3155;SDS011;1588;50.892;7.082;2022-08-23T20:09:33;5.63;;;2.77;;
3155;SDS011;1588;50.892;7.082;2022-08-23T20:14:35;6.07;;;2.73;;
3155;SDS011;1588;50.892;7.082;2022-08-23T20:19:37;12.90;;;3.77;;
3155;SDS011;1588;50.892;7.082;2022-08-23T20:24:42;9.40;;;4.67;;
3155;SDS011;1588;50.892;7.082;2022-08-23T20:29:44;8.93;;;2.90;;
3155;SDS011;1588;50.892;7.082;2022-08-23T20:34:47;8.03;;;2.60;;
3155;SDS011;1588;50.892;7.082;2022-08-23T20:39:50;9.03;;;4.20;;
3155;SDS011;1588;50.892;7.082;2022-08-23T20:44:53;6.63;;;3.40;;
3155;SDS011;1588;50.892;7.082;2022-08-23T20:49:55;5.87;;;2.70;;
3155;SDS011;1588;50.892;7.082;2022-08-23T20:54:59;5.17;;;2.90;;
3155;SDS011;1588;50.892;7.082;2022-08-23T21:00:02;4.80;;;2.90;;
3155;SDS011;1588;50.892;7.082;2022-08-23T21:05:05;5.97;;;2.40;;
3155;SDS011;1588;50.892;7.082;2022-08-23T21:10:09;8.33;;;3.00;;
3155;SDS011;1588;50.892;7.082;2022-08-23T21:15:11;8.73;;;3.33;;
3155;SDS011;1588;50.892;7.082;2022-08-23T21:20:13;6.80;;;3.47;;
3155;SDS011;1588;50.892;7.082;2022-08-23T21:25:17;4.10;;;2.60;;
3155;SDS011;1588;50.892;7.082;2022-08-23T21:30:20;13.00;;;3.00;;
3155;SDS011;1588;50.892;7.082;2022-08-23T21:35:23;10.43;;;3.37;;
3155;SDS011;1588;50.892;7.082;2022-08-23T21:40:26;10.13;;;3.10;;
3155;SDS011;1588;50.892;7.082;2022-08-23T21:45:29;4.10;;;2.67;;
3155;SDS011;1588;50.892;7.082;2022-08-23T21:50:31;8.13;;;3.67;;
3155;SDS011;1588;50.892;7.082;2022-08-23T21:55:35;7.47;;;2.87;;
3155;SDS011;1588;50.892;7.082;2022-08-23T22:00:39;8.60;;;3.33;;
3155;SDS011;1588;50.892;7.082;2022-08-23T22:05:42;9.80;;;3.40;;
3155;SDS011;1588;50.892;7.082;2022-08-23T22:10:47;4.43;;;3.37;;
3155;SDS011;1588;50.892;7.082;2022-08-23T22:15:52;6.43;;;3.40;;
3155;SDS011;1588;50.892;7.082;2022-08-23T22:20:56;5.97;;;2.90;;
3155;SDS011;1588;50.892;7.082;2022-08-23T22:26:01;14.47;;;3.57;;
3155;SDS011;1588;50.892;7.082;2022-08-23T22:31:06;8.03;;;3.10;;
3155;SDS011;1588;50.892;7.082;2022-08-23T22:36:10;8.63;;;3.30;;
3155;SDS011;1588;50.892;7.082;2022-08-23T22:41:18;5.60;;;3.47;;
3155;SDS011;1588;50.892;7.082;2022-08-23T22:46:23;7.30;;;3.23;;
3155;SDS011;1588;50.892;7.082;2022-08-23T22:51:27;8.27;;;3.90;;
3155;SDS011;1588;50.892;7.082;2022-08-23T22:56:37;10.40;;;4.03;;
3155;SDS011;1588;50.892;7.082;2022-08-23T23:01:43;9.37;;;3.87;;
3155;SDS011;1588;50.892;7.082;2022-08-23T23:06:47;5.17;;;3.60;;
3155;SDS011;1588;50.892;7.082;2022-08-23T23:11:51;24.03;;;4.10;;
3155;SDS011;1588;50.892;7.082;2022-08-23T23:16:54;5.50;;;3.53;;
3155;SDS011;1588;50.892;7.082;2022-08-23T23:21:59;5.90;;;3.67;;
3155;SDS011;1588;50.892;7.082;2022-08-23T23:27:05;6.90;;;4.17;;
3155;SDS011;1588;50.892;7.082;2022-08-23T23:32:08;9.13;;;3.83;;
3155;SDS011;1588;50.892;7.082;2022-08-23T23:37:10;8.30;;;4.43;;
3155;SDS011;1588;50.892;7.082;2022-08-23T23:42:13;6.60;;;3.80;;
3155;SDS011;1588;50.892;7.082;2022-08-23T23:47:16;9.63;;;4.40;;
3155;SDS011;1588;50.892;7.082;2022-08-23T23:52:18;8.40;;;4.10;;
3155;SDS011;1588;50.892;7.082;2022-08-23T23:57:21;8.40;;;4.30;;
